Time;durP1;ratioP1;P1;durP2;ratioP2;P2;SDS_P1;SDS_P2;PMS_P1;PMS_P2;Temp;Humidity;BMP_temperature;BMP_pressure;BME280_temperature;BME280_humidity;BME280_pressure;Samples;Min_cycle;Max_cycle;Signal;HPM_P1;HPM_P2
2023/08/29 00:01:49;;;;;;;9.18;5.45;;;;;;;23.62;58.08;101226.28;4991176;28;20108;-80
2023/08/29 00:04:18;;;;;;;8.30;4.88;;;;;;;23.65;57.80;101232.41;4991688;28;20053;-79
2023/08/29 00:06:47;;;;;;;8.55;4.95;;;;;;;23.62;58.22;101231.56;4989236;28;21028;-78
2023/08/29 00:09:15;;;;;;;9.60;4.80;;;;;;;23.60;58.52;101228.06;4985315;28;20070;-77
2023/08/29 00:11:44;;;;;;;13.00;4.82;;;;;;;23.57;58.58;101230.78;4987868;28;20057;-77
2023/08/29 00:14:17;;;;;;;9.88;4.13;;;;;;;23.53;58.27;101228.22;4985341;28;20059;-77
2023/08/29 00:16:47;;;;;;;10.35;4.32;;;;;;;23.49;58.09;101230.00;4980984;28;20046;-78
2023/08/29 00:19:16;;;;;;;9.50;4.45;;;;;;;23.49;57.88;101229.16;4990077;28;20366;-78
2023/08/29 00:21:45;;;;;;;13.63;5.00;;;;;;;23.42;59.20;101225.72;4987597;28;20437;-78
2023/08/29 00:24:15;;;;;;;13.90;4.75;;;;;;;23.36;59.24;101224.03;4989971;28;20062;-77
2023/08/29 00:26:44;;;;;;;8.65;5.28;;;;;;;23.33;60.77;101228.53;4995123;28;20049;-76
2023/08/29 00:29:13;;;;;;;11.68;5.22;;;;;;;23.26;61.04;101227.75;4999659;28;20038;-78
2023/08/29 00:31:41;;;;;;;15.50;5.07;;;;;;;23.20;60.52;101228.72;4989467;28;20070;-76
2023/08/29 00:34:11;;;;;;;9.98;5.03;;;;;;;23.13;61.30;101221.75;4996129;28;20058;-77
2023/08/29 00:36:40;;;;;;;12.07;4.78;;;;;;;23.06;62.37;101225.41;4994036;28;20493;-76
2023/08/29 00:39:09;;;;;;;10.30;4.82;;;;;;;23.00;63.69;101225.50;4993886;28;20054;-75
2023/08/29 00:41:37;;;;;;;10.77;4.70;;;;;;;22.95;63.39;101222.00;4994418;28;20076;-76
2023/08/29 00:44:08;;;;;;;11.95;5.00;;;;;;;22.92;63.48;101222.06;4991893;28;20531;-75
2023/08/29 00:46:42;;;;;;;8.98;4.57;;;;;;;22.84;63.41;101218.63;5000310;28;20034;-77
2023/08/29 00:49:13;;;;;;;13.00;5.25;;;;;;;22.90;63.10;101229.13;5015122;28;20034;-76
2023/08/29 00:51:42;;;;;;;10.77;4.85;;;;;;;22.90;64.56;101229.13;5022185;28;20033;-79
2023/08/29 00:54:11;;;;;;;14.73;4.82;;;;;;;22.86;65.07;101227.41;5012155;28;20076;-78
2023/08/29 00:56:42;;;;;;;11.90;5.28;;;;;;;22.77;63.80;101228.44;5007720;28;20598;-78
2023/08/29 00:59:11;;;;;;;11.27;5.20;;;;;;;22.75;63.82;101231.09;5000963;28;20054;-78
2023/08/29 01:01:41;;;;;;;10.38;5.47;;;;;;;22.73;64.74;101229.38;5006684;28;20042;-78
2023/08/29 01:04:11;;;;;;;9.43;5.00;;;;;;;22.69;64.18;101225.88;5003044;28;20511;-78
2023/08/29 01:06:40;;;;;;;10.90;5.15;;;;;;;22.67;65.36;101235.56;5007113;28;20054;-76
2023/08/29 01:09:09;;;;;;;12.50;5.55;;;;;;;22.60;64.37;101220.72;5008111;28;20451;-72
2023/08/29 01:11:47;;;;;;;8.02;5.10;;;;;;;22.57;63.68;101232.19;5002201;28;20085;-76
2023/08/29 01:14:26;;;;;;;12.98;5.72;;;;;;;22.51;64.51;101232.25;5006871;28;20050;-75
2023/08/29 01:17:01;;;;;;;9.55;5.22;;;;;;;22.46;65.31;101234.09;5008830;28;20189;-77
2023/08/29 01:19:33;;;;;;;9.50;5.60;;;;;;;22.45;64.60;101236.72;5004193;28;20046;-76
2023/08/29 01:22:09;;;;;;;;;;;;;;;22.36;65.03;101233.31;5005851;28;20050;-74
2023/08/29 01:24:46;;;;;;;12.63;7.22;;;;;;;22.31;64.40;101232.50;5006067;28;19955;-78
2023/08/29 01:27:19;;;;;;;7.95;5.70;;;;;;;22.31;65.20;101223.72;5005276;28;20107;-79
2023/08/29 01:29:48;;;;;;;11.50;5.63;;;;;;;22.32;64.84;101228.97;4994775;28;20054;-76
2023/08/29 01:32:18;;;;;;;11.88;5.80;;;;;;;22.30;64.60;101222.84;5000101;28;20100;-80
2023/08/29 01:34:47;;;;;;;9.13;5.72;;;;;;;22.30;64.61;101221.97;4997738;28;20042;-73
2023/08/29 01:37:16;;;;;;;10.10;6.13;;;;;;;22.24;65.30;101222.94;5011739;28;20632;-76
2023/08/29 01:40:04;;;;;;;11.10;6.25;;;;;;;22.18;65.83;101221.19;5003048;28;20512;-77
2023/08/29 01:42:36;;;;;;;9.25;5.82;;;;;;;22.20;65.34;101225.59;5004539;28;20050;-79
2023/08/29 01:45:12;;;;;;;9.52;5.60;;;;;;;22.20;65.26;101237.00;5007262;28;20057;-78
2023/08/29 01:47:42;;;;;;;11.35;6.45;;;;;;;22.18;65.28;101226.47;5001781;28;20050;-80
2023/08/29 01:50:13;;;;;;;9.80;5.47;;;;;;;22.20;65.32;101230.88;5003516;28;20053;-82
2023/08/29 01:52:43;;;;;;;11.23;6.43;;;;;;;22.20;65.48;101233.50;4997058;28;20427;-75
2023/08/29 01:55:11;;;;;;;9.93;6.10;;;;;;;22.16;65.75;101235.28;5000955;28;20050;-75
2023/08/29 01:57:42;;;;;;;9.13;5.63;;;;;;;22.13;66.20;101238.81;4993459;28;20054;-74
2023/08/29 02:00:13;;;;;;;8.90;4.95;;;;;;;22.09;66.26;101233.59;4997159;28;20042;-74
2023/08/29 02:02:41;;;;;;;9.63;5.30;;;;;;;22.07;66.17;101235.38;4995292;28;20742;-76
2023/08/29 02:05:17;;;;;;;9.57;4.80;;;;;;;22.05;66.34;101237.16;5001778;28;20069;-74
2023/08/29 02:07:46;;;;;;;8.75;5.38;;;;;;;22.02;66.30;101238.06;5002093;28;20132;-78
2023/08/29 02:10:14;;;;;;;6.95;5.05;;;;;;;22.01;66.60;101238.94;4996316;28;20674;-77
2023/08/29 02:12:45;;;;;;;5.65;4.68;;;;;;;22.01;67.34;101241.56;4993967;28;20920;-79
2023/08/29 02:15:14;;;;;;;8.15;5.20;;;;;;;22.03;68.04;101244.19;5004861;28;20125;-78
2023/08/29 02:17:43;;;;;;;8.38;4.70;;;;;;;22.02;67.74;101243.34;5001033;28;20053;-82
2023/08/29 02:20:13;;;;;;;8.10;5.03;;;;;;;22.02;67.84;101253.88;5005205;28;20583;-83
2023/08/29 02:22:42;;;;;;;7.63;5.53;;;;;;;22.01;67.24;101243.34;4997448;28;20045;-78
2023/08/29 02:25:11;;;;;;;9.50;5.13;;;;;;;21.97;68.16;101247.78;5003257;28;20503;-76
2023/08/29 02:27:41;;;;;;;10.73;6.45;;;;;;;21.94;66.57;101247.78;5000773;28;20518;-82
2023/08/29 02:30:13;;;;;;;11.27;7.18;;;;;;;21.87;66.32;101257.50;4998487;28;20052;-75
2023/08/29 02:32:42;;;;;;;13.40;7.47;;;;;;;21.81;66.55;101257.59;5007132;28;20182;-80
2023/08/29 02:35:11;;;;;;;9.98;5.93;;;;;;;21.78;66.83;101257.59;5004485;28;20053;-79
2023/08/29 02:37:43;;;;;;;11.25;6.97;;;;;;;21.75;67.06;101257.63;4997469;28;20058;-80
2023/08/29 02:40:13;;;;;;;12.43;7.30;;;;;;;21.71;66.52;101262.03;5000275;28;20046;-82
2023/08/29 02:42:41;;;;;;;13.25;7.68;;;;;;;21.68;66.81;101269.09;5002962;28;20130;-74
2023/08/29 02:45:14;;;;;;;12.98;7.82;;;;;;;21.65;67.31;101263.88;4992720;28;20050;-77
2023/08/29 02:47:45;;;;;;;13.45;8.38;;;;;;;21.59;67.70;101263.91;4994744;28;20050;-76
2023/08/29 02:50:13;;;;;;;11.82;7.97;;;;;;;21.51;67.89;101262.22;4998478;28;21494;-77
2023/08/29 02:52:42;;;;;;;15.48;8.95;;;;;;;21.44;67.66;101270.16;4991228;28;20806;-79
2023/08/29 02:55:11;;;;;;;14.82;8.65;;;;;;;21.40;67.86;101271.06;4995903;28;20134;-80
2023/08/29 02:57:40;;;;;;;12.98;8.55;;;;;;;21.38;68.26;101265.78;4993768;28;20050;-81
2023/08/29 03:00:12;;;;;;;13.50;7.68;;;;;;;21.30;68.29;101262.31;5004222;28;20666;-82
2023/08/29 03:02:40;;;;;;;;;;;;;;;21.31;68.15;101269.34;4995456;28;20481;-80
2023/08/29 03:05:09;;;;;;;13.02;8.50;;;;;;;21.30;68.17;101267.59;5007540;28;19929;-83
2023/08/29 03:07:38;;;;;;;11.98;7.95;;;;;;;21.28;68.29;101269.34;5009044;28;20054;-78
2023/08/29 03:10:10;;;;;;;16.30;8.60;;;;;;;21.25;67.39;101269.38;5004588;28;20054;-85
2023/08/29 03:12:38;;;;;;;;;;;;;;;21.18;67.61;101262.41;5005067;28;20970;-85
2023/08/29 03:15:07;;;;;;;12.48;8.07;;;;;;;21.19;68.11;101265.06;5007424;28;19929;-75
2023/08/29 03:17:37;;;;;;;12.60;7.68;;;;;;;21.18;67.78;101267.69;5003557;28;20050;-83
2023/08/29 03:20:08;;;;;;;13.98;8.02;;;;;;;21.11;67.49;101274.72;5004166;28;20045;-77
2023/08/29 03:22:37;;;;;;;12.65;7.68;;;;;;;21.09;67.41;101276.50;4998993;28;20057;-77
2023/08/29 03:25:06;;;;;;;12.85;8.30;;;;;;;21.03;67.99;101274.78;5000192;28;20540;-78
2023/08/29 03:27:35;;;;;;;14.00;8.35;;;;;;;21.01;68.07;101281.81;5000755;28;20503;-80
2023/08/29 03:30:10;;;;;;;13.65;8.38;;;;;;;20.97;67.81;101280.06;4995832;28;20077;-73
2023/08/29 03:32:40;;;;;;;13.95;8.57;;;;;;;20.96;68.09;101275.72;4998749;28;20050;-75
2023/08/29 03:35:09;;;;;;;11.20;7.80;;;;;;;20.93;68.54;101273.06;4995580;28;20066;-74
2023/08/29 03:37:38;;;;;;;12.85;7.70;;;;;;;20.86;68.00;101271.34;4994848;28;20057;-80
2023/08/29 03:40:10;;;;;;;12.60;8.55;;;;;;;20.83;68.09;101280.13;5001940;28;20054;-79
2023/08/29 03:42:39;;;;;;;;;;;;;;;20.83;67.74;101281.91;4991419;28;20050;-82
2023/08/29 03:45:09;;;;;;;12.40;8.20;;;;;;;20.83;68.13;101281.91;4995666;28;19925;-80
2023/08/29 03:47:40;;;;;;;14.23;8.27;;;;;;;20.86;68.07;101285.38;5004593;28;20096;-81
2023/08/29 03:50:10;;;;;;;14.35;8.95;;;;;;;20.88;67.68;101285.38;5018253;28;20057;-79
2023/08/29 03:52:45;;;;;;;14.60;9.13;;;;;;;20.90;67.13;101288.88;5025039;28;20046;-81
2023/08/29 03:55:14;;;;;;;13.00;8.25;;;;;;;20.93;67.23;101291.47;5026813;28;20037;-87
2023/08/29 03:57:43;;;;;;;13.52;8.98;;;;;;;20.96;67.14;101290.59;5025174;28;20047;-86
2023/08/29 04:00:13;;;;;;;13.65;8.65;;;;;;;20.98;66.89;101296.72;5024976;28;20038;-82
2023/08/29 04:02:44;;;;;;;12.30;8.48;;;;;;;20.99;66.80;101299.34;5020615;28;20049;-86
2023/08/29 04:05:14;;;;;;;12.52;8.70;;;;;;;21.00;66.49;101298.47;5009315;28;20664;-83
2023/08/29 04:07:44;;;;;;;14.52;8.90;;;;;;;21.02;66.59;101295.84;5004925;28;20136;-75
2023/08/29 04:10:14;;;;;;;12.15;8.18;;;;;;;21.05;66.32;101299.34;4997899;28;20108;-76
2023/08/29 04:12:51;;;;;;;16.60;9.88;;;;;;;21.06;66.02;101301.06;4994588;28;20137;-77
2023/08/29 04:15:19;;;;;;;12.27;8.55;;;;;;;21.05;66.71;101299.34;5015555;28;20045;-76
2023/08/29 04:17:50;;;;;;;14.43;8.95;;;;;;;21.04;66.45;101300.19;5008526;28;20549;-75
2023/08/29 04:20:24;;;;;;;14.85;9.20;;;;;;;21.05;66.91;101301.97;5004231;28;20967;-78
2023/08/29 04:22:53;;;;;;;16.98;9.80;;;;;;;21.00;66.79;101295.81;4996450;28;20140;-78
2023/08/29 04:25:22;;;;;;;15.05;9.23;;;;;;;21.03;67.39;101300.22;4998438;28;20556;-75
2023/08/29 04:27:51;;;;;;;14.05;9.60;;;;;;;21.03;67.67;101311.63;5007661;28;20079;-78
2023/08/29 04:30:20;;;;;;;11.82;8.48;;;;;;;21.02;67.34;101308.97;5004028;28;20607;-79
2023/08/29 04:32:53;;;;;;;14.65;9.02;;;;;;;21.02;67.84;101309.84;4997461;28;20105;-74
2023/08/29 04:35:21;;;;;;;13.80;8.90;;;;;;;21.03;67.45;101310.75;5000077;28;20057;-72
2023/08/29 04:37:51;;;;;;;13.50;9.32;;;;;;;21.02;67.63;101309.84;5005522;28;20057;-76
2023/08/29 04:40:23;;;;;;;15.98;9.23;;;;;;;21.03;68.00;101309.00;5002971;28;20050;-76
2023/08/29 04:42:56;;;;;;;15.13;9.95;;;;;;;21.04;67.82;101305.47;5006047;28;20120;-78
2023/08/29 04:45:25;;;;;;;13.15;8.57;;;;;;;21.00;68.49;101301.09;5009997;28;20103;-76
2023/08/29 04:47:55;;;;;;;13.48;7.40;;;;;;;20.94;68.33;101295.88;5003811;28;20078;-75
2023/08/29 04:50:25;;;;;;;14.05;8.90;;;;;;;20.87;69.04;101296.78;4999323;28;20525;-78
2023/08/29 04:52:56;;;;;;;11.15;6.38;;;;;;;20.85;69.03;101295.91;4985166;28;20057;-78
2023/08/29 04:55:25;;;;;;;14.70;8.90;;;;;;;20.82;68.86;101296.81;4986527;28;20039;-79
2023/08/29 04:57:56;;;;;;;16.35;7.72;;;;;;;20.79;69.55;101295.94;4983630;28;20460;-76
2023/08/29 05:00:26;;;;;;;13.43;7.68;;;;;;;20.73;70.08;101290.69;4980439;28;20066;-77
2023/08/29 05:03:04;;;;;;;14.82;9.30;;;;;;;20.66;70.31;101296.00;4983934;28;20112;-79
2023/08/29 05:05:33;;;;;;;18.63;10.73;;;;;;;20.64;70.88;101284.59;4979861;28;20050;-76
2023/08/29 05:08:03;;;;;;;16.27;9.60;;;;;;;20.65;70.75;101283.72;4980600;28;20568;-76
2023/08/29 05:10:32;;;;;;;20.63;10.68;;;;;;;20.64;70.10;101284.59;4976467;28;20042;-76
2023/08/29 05:13:03;;;;;;;16.52;10.05;;;;;;;20.63;70.48;101290.72;4978134;28;20046;-76
2023/08/29 05:15:33;;;;;;;18.63;9.95;;;;;;;20.63;70.57;101295.13;4986150;28;20176;-79
2023/08/29 05:18:03;;;;;;;15.18;10.20;;;;;;;20.58;70.75;101286.38;4978708;28;20078;-78
2023/08/29 05:20:32;;;;;;;12.75;7.70;;;;;;;20.55;69.97;101287.22;4982507;28;20042;-79
2023/08/29 05:23:03;;;;;;;13.23;7.43;;;;;;;20.54;70.11;101288.09;4987119;28;20536;-78
2023/08/29 05:25:31;;;;;;;14.45;8.90;;;;;;;20.49;70.21;101295.13;4984172;28;20046;-77
2023/08/29 05:28:00;;;;;;;16.13;10.05;;;;;;;20.46;70.93;101297.78;4985973;28;20516;-77
2023/08/29 05:30:30;;;;;;;18.00;10.25;;;;;;;20.42;70.87;101296.91;4982196;28;20711;-77
2023/08/29 05:33:02;;;;;;;14.32;8.45;;;;;;;20.42;70.77;101290.78;4985319;28;20061;-78
2023/08/29 05:35:32;;;;;;;15.93;7.18;;;;;;;20.41;70.60;101296.88;4995685;28;20049;-80
2023/08/29 05:38:01;;;;;;;19.65;10.93;;;;;;;20.37;68.92;101292.53;5010415;28;20049;-81
2023/08/29 05:40:30;;;;;;;16.10;8.25;;;;;;;20.31;69.63;101298.66;5007221;28;20049;-85
2023/08/29 05:43:03;;;;;;;13.43;7.25;;;;;;;20.33;69.51;101299.53;5008188;28;20058;-84
2023/08/29 05:45:31;;;;;;;13.20;7.10;;;;;;;20.31;68.95;101301.31;5007381;28;20045;-77
2023/08/29 05:48:00;;;;;;;13.48;8.02;;;;;;;20.24;69.00;101292.56;5006016;28;20516;-80
2023/08/29 05:50:29;;;;;;;14.55;8.57;;;;;;;20.27;68.52;101300.44;5020042;28;20111;-83
2023/08/29 05:53:03;;;;;;;15.70;9.90;;;;;;;20.24;68.68;101291.69;5025282;28;20080;-79
2023/08/29 05:55:32;;;;;;;18.92;10.05;;;;;;;20.17;68.93;101301.31;5026114;28;20045;-80
2023/08/29 05:58:01;;;;;;;14.57;7.85;;;;;;;20.16;68.87;101294.34;5026317;28;20053;-82
2023/08/29 06:00:32;;;;;;;13.05;7.35;;;;;;;20.14;68.33;101298.72;5025630;28;20057;-79
2023/08/29 06:03:01;;;;;;;15.02;7.43;;;;;;;20.13;68.65;101299.56;5021795;28;20049;-80
2023/08/29 06:05:38;;;;;;;14.95;7.50;;;;;;;20.11;67.38;101295.19;5025881;28;20061;-79
2023/08/29 06:08:08;;;;;;;15.73;7.10;;;;;;;20.09;66.64;101280.31;5024925;28;20069;-81
2023/08/29 06:10:37;;;;;;;13.68;9.32;;;;;;;20.12;66.76;101282.06;5026560;28;20050;-80
2023/08/29 06:13:15;;;;;;;14.25;7.85;;;;;;;20.14;64.96;101288.19;5024457;28;20056;-80
2023/08/29 06:15:44;;;;;;;13.82;8.45;;;;;;;20.19;65.25;101288.19;5021345;28;20045;-78
2023/08/29 06:18:13;;;;;;;15.40;6.85;;;;;;;20.21;65.07;101284.69;5022851;28;20535;-76
2023/08/29 06:20:41;;;;;;;11.27;5.97;;;;;;;20.19;63.91;101283.81;5021650;28;20691;-80
2023/08/29 06:23:15;;;;;;;10.02;6.82;;;;;;;20.17;62.27;101290.81;5019849;28;20085;-80
2023/08/29 06:25:44;;;;;;;12.68;6.50;;;;;;;20.17;61.49;101290.81;5022255;28;20123;-81
2023/08/29 06:28:12;;;;;;;11.98;6.45;;;;;;;20.15;61.00;101286.44;5026551;28;20957;-74
2023/08/29 06:30:41;;;;;;;12.00;6.25;;;;;;;20.09;62.94;101282.97;5026031;28;20038;-80
2023/08/29 06:33:09;;;;;;;11.32;5.90;;;;;;;20.06;62.93;101288.19;5031201;28;20221;-79
2023/08/29 06:35:39;;;;;;;10.50;5.88;;;;;;;20.06;62.78;101292.56;5030147;28;20044;-81
2023/08/29 06:38:08;;;;;;;9.82;5.95;;;;;;;20.05;62.54;101293.47;5024104;28;20052;-81
2023/08/29 06:40:38;;;;;;;12.45;6.10;;;;;;;20.00;61.56;101287.34;5021101;28;20115;-81
2023/08/29 06:43:07;;;;;;;11.50;6.63;;;;;;;19.98;62.14;101289.97;5025993;28;20045;-84
2023/08/29 06:45:38;;;;;;;13.88;8.25;;;;;;;19.97;62.74;101290.81;5028135;28;20415;-85
2023/08/29 06:48:07;;;;;;;12.05;8.18;;;;;;;19.95;61.88;101286.47;5028768;28;20459;-84
2023/08/29 06:50:35;;;;;;;11.70;6.60;;;;;;;19.92;61.71;101284.72;5028370;28;20103;-84
2023/08/29 06:53:04;;;;;;;10.95;6.95;;;;;;;19.89;61.67;101284.72;5033155;28;20049;-82
2023/08/29 06:55:34;;;;;;;12.95;7.95;;;;;;;19.87;61.60;101282.09;5038303;28;20702;-74
2023/08/29 06:58:05;;;;;;;11.23;5.88;;;;;;;19.85;61.80;101283.84;5039337;28;20038;-83
2023/08/29 07:00:35;;;;;;;14.00;7.65;;;;;;;19.84;61.72;101287.34;5043792;28;20065;-79
2023/08/29 07:03:04;;;;;;;12.23;6.20;;;;;;;19.81;61.55;101282.13;5043051;28;20050;-74
2023/08/29 07:05:32;;;;;;;13.52;8.20;;;;;;;19.79;61.50;101289.13;5026514;28;20141;-80
2023/08/29 07:08:04;;;;;;;13.88;7.43;;;;;;;19.77;61.25;101277.72;5023701;28;20606;-82
2023/08/29 07:10:34;;;;;;;11.52;6.57;;;;;;;19.73;61.60;101283.84;5024859;28;20515;-74
2023/08/29 07:13:11;;;;;;;13.20;6.55;;;;;;;19.70;62.03;101275.09;5021465;28;20052;-82
2023/08/29 07:15:41;;;;;;;9.90;6.35;;;;;;;19.70;61.84;101278.59;5026075;28;20045;-80
2023/08/29 07:18:10;;;;;;;11.32;6.15;;;;;;;19.67;62.35;101275.94;5025730;28;20053;-83
2023/08/29 07:20:39;;;;;;;10.52;6.13;;;;;;;19.64;61.68;101275.94;5021759;28;20037;-81
2023/08/29 07:23:07;;;;;;;12.68;6.43;;;;;;;19.61;61.91;101278.56;5025060;28;20057;-79
2023/08/29 07:25:41;;;;;;;12.65;6.28;;;;;;;19.57;61.92;101276.81;5026338;28;20041;-82
2023/08/29 07:28:13;;;;;;;11.23;6.72;;;;;;;19.56;62.10;101275.03;5023316;28;20049;-78
2023/08/29 07:30:45;;;;;;;12.50;6.88;;;;;;;19.57;62.64;101276.81;5020691;28;20520;-78
2023/08/29 07:33:15;;;;;;;11.75;5.97;;;;;;;19.56;62.02;101277.66;5027607;28;20423;-84
2023/08/29 07:35:49;;;;;;;12.05;6.85;;;;;;;19.55;62.36;101289.06;5028917;28;20050;-79
2023/08/29 07:38:19;;;;;;;12.95;8.85;;;;;;;19.52;62.37;101283.81;5027482;28;20132;-82
2023/08/29 07:40:48;;;;;;;10.73;5.85;;;;;;;19.50;62.63;101290.81;5025193;28;20523;-80
2023/08/29 07:43:18;;;;;;;12.88;7.50;;;;;;;19.45;63.03;101288.19;5026496;28;20053;-80
2023/08/29 07:45:50;;;;;;;13.93;7.72;;;;;;;19.43;63.34;101287.31;5028592;28;20103;-80
2023/08/29 07:48:19;;;;;;;9.13;5.78;;;;;;;19.42;63.94;101288.16;5025704;28;20054;-80
2023/08/29 07:50:51;;;;;;;11.35;7.00;;;;;;;19.40;63.61;101289.91;5029825;28;20080;-79
2023/08/29 07:53:19;;;;;;;;;;;;;;;19.37;63.74;101287.28;5026919;28;20045;-79
2023/08/29 07:55:48;;;;;;;12.30;6.57;;;;;;;19.35;64.08;101292.50;5023600;28;19988;-79
2023/08/29 07:58:18;;;;;;;11.77;6.90;;;;;;;19.34;64.25;101296.03;5027891;28;20488;-79
2023/08/29 08:00:47;;;;;;;8.93;5.50;;;;;;;19.32;63.79;101295.13;5028013;28;20045;-77
2023/08/29 08:03:16;;;;;;;10.40;5.97;;;;;;;19.29;63.99;101292.53;5024437;28;20053;-76
2023/08/29 08:05:44;;;;;;;11.13;6.05;;;;;;;19.29;64.30;101302.13;5027311;28;20049;-78
2023/08/29 08:08:14;;;;;;;10.13;5.13;;;;;;;19.25;63.78;101296.00;5026410;28;20526;-78
2023/08/29 08:10:43;;;;;;;12.95;7.15;;;;;;;19.21;63.65;101299.50;5025835;28;20049;-77
2023/08/29 08:13:12;;;;;;;13.38;7.20;;;;;;;19.22;63.77;101296.00;5025449;28;20393;-77
2023/08/29 08:15:42;;;;;;;9.02;5.68;;;;;;;19.21;64.76;101292.47;5023917;28;20042;-82
2023/08/29 08:18:11;;;;;;;10.80;6.07;;;;;;;19.23;63.67;101292.50;5031968;28;20074;-81
2023/08/29 08:20:39;;;;;;;13.30;6.60;;;;;;;19.22;63.25;101286.38;5027467;28;20089;-81
2023/08/29 08:23:08;;;;;;;9.57;5.53;;;;;;;19.20;63.50;101284.63;5024864;28;20103;-80
2023/08/29 08:25:36;;;;;;;10.13;5.63;;;;;;;19.22;63.98;101296.00;5027178;28;20044;-81
2023/08/29 08:28:06;;;;;;;11.00;5.78;;;;;;;19.22;63.35;101293.38;5030564;28;20063;-84
2023/08/29 08:30:36;;;;;;;10.40;4.63;;;;;;;19.18;62.79;101289.00;5027696;28;20579;-80
2023/08/29 08:33:10;;;;;;;8.45;4.35;;;;;;;19.18;63.19;101299.50;5026196;28;20080;-80
2023/08/29 08:35:38;;;;;;;11.25;5.60;;;;;;;19.17;63.07;101298.63;5027231;28;20468;-81
2023/08/29 08:38:07;;;;;;;11.13;5.63;;;;;;;19.17;63.04;101288.13;5027145;28;20041;-79
2023/08/29 08:40:36;;;;;;;8.77;5.50;;;;;;;19.18;63.30;101291.63;5027277;28;20059;-82
2023/08/29 08:43:08;;;;;;;11.25;6.05;;;;;;;19.22;62.95;101285.50;5027641;28;20658;-83
2023/08/29 08:45:38;;;;;;;11.47;5.97;;;;;;;19.21;62.92;101282.00;5029775;28;20053;-82
2023/08/29 08:48:08;;;;;;;8.65;4.82;;;;;;;19.21;62.88;101294.25;5023248;28;20298;-81
2023/08/29 08:50:38;;;;;;;7.80;4.65;;;;;;;19.20;62.63;101287.25;5020391;28;20115;-80
2023/08/29 08:53:08;;;;;;;9.43;6.05;;;;;;;19.18;62.64;101291.63;5027660;28;20056;-81
2023/08/29 08:55:37;;;;;;;11.93;5.45;;;;;;;19.19;62.72;101293.34;5026360;28;20065;-81
2023/08/29 08:58:06;;;;;;;9.10;5.20;;;;;;;19.19;62.48;101298.59;5021213;28;20050;-80
2023/08/29 09:00:35;;;;;;;10.05;5.90;;;;;;;19.20;62.68;101298.63;5025442;28;20053;-81
2023/08/29 09:03:03;;;;;;;11.25;5.00;;;;;;;19.20;62.68;101303.88;5017901;28;20451;-76
2023/08/29 09:05:36;;;;;;;9.13;5.35;;;;;;;19.20;62.62;101313.50;5021680;28;20049;-79
2023/08/29 09:08:05;;;;;;;9.02;5.78;;;;;;;19.22;62.65;101307.38;5024759;28;20399;-80
2023/08/29 09:10:35;;;;;;;9.60;5.20;;;;;;;19.22;62.58;101302.13;5027896;28;20052;-79
2023/08/29 09:13:03;;;;;;;9.80;5.47;;;;;;;19.16;62.19;101285.50;5029131;28;20057;-79
2023/08/29 09:15:34;;;;;;;10.35;6.65;;;;;;;19.20;61.90;101293.38;5027821;28;20038;-81
2023/08/29 09:18:02;;;;;;;9.52;5.28;;;;;;;19.21;61.96;101294.25;5023835;28;20056;-79
2023/08/29 09:20:33;;;;;;;9.30;5.22;;;;;;;19.19;61.79;101291.59;5025535;28;20519;-80
2023/08/29 09:23:02;;;;;;;11.20;5.15;;;;;;;19.17;62.10;101296.00;5028902;28;20463;-81
2023/08/29 09:25:31;;;;;;;7.20;4.97;;;;;;;19.18;62.04;101291.63;5031680;28;20103;-81
2023/08/29 09:28:04;;;;;;;9.95;5.07;;;;;;;19.17;62.23;101292.47;5025329;28;20061;-80
2023/08/29 09:30:33;;;;;;;8.88;5.05;;;;;;;19.15;62.97;101281.09;5025715;28;20495;-77
2023/08/29 09:33:09;;;;;;;9.52;4.68;;;;;;;19.17;62.21;101289.84;5022907;28;20523;-81
2023/08/29 09:35:40;;;;;;;9.38;5.80;;;;;;;19.14;62.34;101292.47;5026345;28;20041;-81
2023/08/29 09:38:08;;;;;;;9.20;5.20;;;;;;;19.11;61.99;101282.00;5028655;28;20041;-81
2023/08/29 09:40:51;;;;;;;10.68;4.53;;;;;;;19.14;61.92;101292.47;5026786;28;20049;-81
2023/08/29 09:43:22;;;;;;;9.30;4.65;;;;;;;19.11;62.79;101303.84;5031532;28;20096;-80
2023/08/29 09:45:52;;;;;;;8.23;4.82;;;;;;;19.10;63.04;101301.19;5029179;28;20056;-78
2023/08/29 09:48:21;;;;;;;9.25;4.47;;;;;;;19.11;63.02;101302.97;5032145;28;20083;-79
2023/08/29 09:50:52;;;;;;;8.27;4.72;;;;;;;19.05;62.58;101296.81;5043088;28;20101;-79
2023/08/29 09:53:21;;;;;;;7.75;3.65;;;;;;;19.07;62.57;101301.19;5040965;28;20045;-77
2023/08/29 09:55:57;;;;;;;7.93;4.40;;;;;;;19.08;62.71;101303.84;5045989;28;20033;-78
2023/08/29 09:58:29;;;;;;;7.03;4.30;;;;;;;19.10;62.61;101301.19;5042194;28;20085;-78
2023/08/29 10:00:59;;;;;;;10.17;4.80;;;;;;;19.10;62.71;101301.19;5027388;28;20072;-79
2023/08/29 10:03:28;;;;;;;9.10;5.18;;;;;;;19.09;62.43;101300.34;5028213;28;20340;-78
2023/08/29 10:06:05;;;;;;;7.07;4.13;;;;;;;19.10;62.42;101290.72;5030300;28;20057;-79
2023/08/29 10:08:43;;;;;;;6.68;3.80;;;;;;;19.10;62.45;101285.47;5024475;28;20057;-73
2023/08/29 10:11:12;;;;;;;6.88;4.07;;;;;;;19.10;62.28;101285.47;5023555;28;20045;-77
2023/08/29 10:13:43;;;;;;;8.38;4.28;;;;;;;19.08;62.12;101277.63;5023199;28;20050;-78
2023/08/29 10:16:13;;;;;;;8.00;4.35;;;;;;;19.08;62.53;101277.63;5023966;28;20057;-78
2023/08/29 10:18:44;;;;;;;7.10;4.03;;;;;;;19.11;62.35;101284.59;5025010;28;20575;-77
2023/08/29 10:21:15;;;;;;;9.90;4.65;;;;;;;19.12;62.51;101278.47;5024874;28;20466;-79
2023/08/29 10:23:45;;;;;;;9.35;4.45;;;;;;;19.14;62.38;101282.84;5026007;28;20081;-79
2023/08/29 10:26:14;;;;;;;9.15;4.82;;;;;;;19.14;62.20;101284.59;5025758;28;20061;-79
2023/08/29 10:28:43;;;;;;;8.93;4.57;;;;;;;19.16;62.31;101288.13;5021160;28;20125;-80
2023/08/29 10:31:16;;;;;;;7.95;4.68;;;;;;;19.16;62.35;101282.88;5027564;28;20058;-80
2023/08/29 10:33:45;;;;;;;8.55;4.68;;;;;;;19.17;62.12;101280.25;5018861;28;20395;-80
2023/08/29 10:36:15;;;;;;;7.15;4.68;;;;;;;19.17;62.17;101280.25;5019640;28;20136;-79
2023/08/29 10:38:49;;;;;;;8.40;4.82;;;;;;;19.17;62.25;101274.09;5021058;28;20061;-77
2023/08/29 10:41:18;;;;;;;7.32;5.03;;;;;;;19.13;62.11;101275.00;5019457;28;20053;-78
2023/08/29 10:43:46;;;;;;;6.70;4.40;;;;;;;19.15;62.59;101282.00;5021254;28;20488;-76
2023/08/29 10:46:16;;;;;;;11.65;6.85;;;;;;;19.12;66.86;101284.59;5020390;28;20050;-76
2023/08/29 10:48:55;;;;;;;11.55;5.82;;;;;;;19.05;68.26;101288.94;5021787;28;20431;-75
2023/08/29 10:51:26;;;;;;;11.60;6.55;;;;;;;19.01;70.34;101284.59;5022911;28;20056;-78
2023/08/29 10:53:56;;;;;;;14.63;7.05;;;;;;;18.95;71.74;101297.66;5022740;28;20529;-72
2023/08/29 10:56:27;;;;;;;13.25;6.78;;;;;;;18.87;72.62;101286.25;5016279;28;20042;-75
2023/08/29 10:58:58;;;;;;;14.07;7.22;;;;;;;18.82;73.67;101290.63;5025392;28;20046;-74
2023/08/29 11:01:31;;;;;;;15.63;7.20;;;;;;;18.76;74.86;101293.16;5028867;28;20045;-77
2023/08/29 11:04:03;;;;;;;13.10;7.57;;;;;;;18.72;75.17;101304.53;5025136;28;20472;-72
2023/08/29 11:06:55;;;;;;;9.75;5.78;;;;;;;18.70;75.98;101303.66;5028363;28;20539;-77
2023/08/29 11:09:26;;;;;;;13.23;7.07;;;;;;;18.68;76.86;101300.13;5030632;28;20060;-78
2023/08/29 11:12:08;;;;;;;14.75;6.40;;;;;;;18.67;77.63;101306.22;5028609;28;20631;-76
2023/08/29 11:14:55;;;;;;;;;;;;;;;18.63;78.41;101308.84;5028349;28;20046;-75
2023/08/29 11:17:24;;;;;;;12.48;7.05;;;;;;;18.58;78.75;101302.72;5026885;28;19929;-77
2023/08/29 11:19:54;;;;;;;10.63;6.22;;;;;;;18.56;79.53;101303.56;5027555;28;20100;-78
2023/08/29 11:22:26;;;;;;;14.70;7.13;;;;;;;18.52;80.17;101307.91;5028002;28;20454;-82
2023/08/29 11:24:56;;;;;;;14.60;8.23;;;;;;;18.47;80.56;101309.63;5032565;28;20053;-77
2023/08/29 11:27:25;;;;;;;13.68;6.80;;;;;;;18.43;80.75;101306.09;5021070;28;20060;-79
2023/08/29 11:29:55;;;;;;;13.75;6.53;;;;;;;18.43;80.53;101307.84;5022940;28;20053;-77
2023/08/29 11:32:24;;;;;;;13.10;5.88;;;;;;;18.41;80.62;101309.59;5023766;28;20119;-79
2023/08/29 11:34:55;;;;;;;13.45;7.05;;;;;;;18.40;80.78;101305.22;5028052;28;20057;-78
2023/08/29 11:37:25;;;;;;;10.27;6.47;;;;;;;18.40;81.00;101313.09;5029218;28;20076;-76